sensor_id;sensor_type;location;lat;lon;timestamp;P1;durP1;ratioP1;P2;durP2;ratioP2
21798;SDS011;24973;47.178;15.316;2022-11-20T00:01:27;11.67;;;8.47;;
21798;SDS011;24973;47.178;15.316;2022-11-20T00:04:19;13.30;;;9.57;;
21798;SDS011;24973;47.178;15.316;2022-11-20T00:07:07;12.23;;;7.67;;
21798;SDS011;24973;47.178;15.316;2022-11-20T00:09:56;13.53;;;10.20;;
21798;SDS011;24973;47.178;15.316;2022-11-20T00:12:45;10.87;;;8.13;;
21798;SDS011;24973;47.178;15.316;2022-11-20T00:15:33;10.27;;;7.77;;
21798;SDS011;24973;47.178;15.316;2022-11-20T00:18:22;11.17;;;8.53;;
21798;SDS011;24973;47.178;15.316;2022-11-20T00:21:13;10.90;;;9.13;;
21798;SDS011;24973;47.178;15.316;2022-11-20T00:24:03;9.10;;;7.83;;
21798;SDS011;24973;47.178;15.316;2022-11-20T00:26:53;14.97;;;8.80;;
21798;SDS011;24973;47.178;15.316;2022-11-20T00:29:42;12.37;;;8.43;;
21798;SDS011;24973;47.178;15.316;2022-11-20T00:32:30;9.97;;;7.00;;
21798;SDS011;24973;47.178;15.316;2022-11-20T00:35:19;10.87;;;7.30;;
21798;SDS011;24973;47.178;15.316;2022-11-20T00:38:09;10.53;;;6.70;;
21798;SDS011;24973;47.178;15.316;2022-11-20T00:40:58;9.23;;;7.27;;
21798;SDS011;24973;47.178;15.316;2022-11-20T00:43:48;11.67;;;8.23;;
21798;SDS011;24973;47.178;15.316;2022-11-20T00:46:39;8.30;;;7.00;;
21798;SDS011;24973;47.178;15.316;2022-11-20T00:49:28;9.77;;;6.37;;
21798;SDS011;24973;47.178;15.316;2022-11-20T00:52:16;8.70;;;6.60;;
21798;SDS011;24973;47.178;15.316;2022-11-20T00:55:06;8.87;;;7.13;;
21798;SDS011;24973;47.178;15.316;2022-11-20T00:57:55;9.00;;;6.60;;
21798;SDS011;24973;47.178;15.316;2022-11-20T01:00:45;7.23;;;6.43;;
21798;SDS011;24973;47.178;15.316;2022-11-20T01:03:34;11.50;;;8.37;;
21798;SDS011;24973;47.178;15.316;2022-11-20T01:06:26;11.33;;;7.47;;
21798;SDS011;24973;47.178;15.316;2022-11-20T01:09:17;8.13;;;6.00;;
21798;SDS011;24973;47.178;15.316;2022-11-20T01:12:07;8.43;;;6.53;;
21798;SDS011;24973;47.178;15.316;2022-11-20T01:14:56;9.93;;;6.70;;
21798;SDS011;24973;47.178;15.316;2022-11-20T01:17:45;7.83;;;6.17;;
21798;SDS011;24973;47.178;15.316;2022-11-20T01:20:34;11.87;;;6.63;;
21798;SDS011;24973;47.178;15.316;2022-11-20T01:23:23;8.23;;;6.57;;
21798;SDS011;24973;47.178;15.316;2022-11-20T01:26:12;10.60;;;6.27;;
21798;SDS011;24973;47.178;15.316;2022-11-20T01:29:05;10.87;;;6.57;;
21798;SDS011;24973;47.178;15.316;2022-11-20T01:31:56;11.13;;;7.03;;
21798;SDS011;24973;47.178;15.316;2022-11-20T01:34:45;10.07;;;6.70;;
21798;SDS011;24973;47.178;15.316;2022-11-20T01:37:34;11.13;;;7.00;;
21798;SDS011;24973;47.178;15.316;2022-11-20T01:40:22;10.00;;;6.53;;
21798;SDS011;24973;47.178;15.316;2022-11-20T01:43:12;8.10;;;5.77;;
21798;SDS011;24973;47.178;15.316;2022-11-20T01:46:15;10.80;;;6.77;;
21798;SDS011;24973;47.178;15.316;2022-11-20T01:49:07;6.13;;;5.23;;
21798;SDS011;24973;47.178;15.316;2022-11-20T01:52:04;11.50;;;6.60;;
21798;SDS011;24973;47.178;15.316;2022-11-20T01:54:59;5.73;;;5.07;;
21798;SDS011;24973;47.178;15.316;2022-11-20T01:57:54;12.90;;;7.33;;
21798;SDS011;24973;47.178;15.316;2022-11-20T02:00:43;8.23;;;5.73;;
21798;SDS011;24973;47.178;15.316;2022-11-20T02:03:33;9.47;;;6.07;;
21798;SDS011;24973;47.178;15.316;2022-11-20T02:06:23;11.47;;;7.13;;
21798;SDS011;24973;47.178;15.316;2022-11-20T02:09:14;11.23;;;6.83;;
21798;SDS011;24973;47.178;15.316;2022-11-20T02:12:04;12.03;;;7.83;;
21798;SDS011;24973;47.178;15.316;2022-11-20T02:15:13;11.70;;;7.20;;
21798;SDS011;24973;47.178;15.316;2022-11-20T02:18:01;10.70;;;6.90;;
21798;SDS011;24973;47.178;15.316;2022-11-20T02:20:53;9.73;;;7.07;;
21798;SDS011;24973;47.178;15.316;2022-11-20T02:24:02;10.43;;;6.40;;
21798;SDS011;24973;47.178;15.316;2022-11-20T02:26:54;10.70;;;7.37;;
21798;SDS011;24973;47.178;15.316;2022-11-20T02:29:48;9.77;;;6.50;;
21798;SDS011;24973;47.178;15.316;2022-11-20T02:32:40;12.40;;;7.17;;
21798;SDS011;24973;47.178;15.316;2022-11-20T02:35:40;11.57;;;8.40;;
21798;SDS011;24973;47.178;15.316;2022-11-20T02:38:31;12.33;;;6.83;;
21798;SDS011;24973;47.178;15.316;2022-11-20T02:41:21;11.63;;;7.73;;
21798;SDS011;24973;47.178;15.316;2022-11-20T02:44:18;10.80;;;7.93;;
21798;SDS011;24973;47.178;15.316;2022-11-20T02:47:07;9.53;;;6.70;;
21798;SDS011;24973;47.178;15.316;2022-11-20T02:49:56;13.30;;;8.13;;
21798;SDS011;24973;47.178;15.316;2022-11-20T02:52:45;12.27;;;7.33;;
21798;SDS011;24973;47.178;15.316;2022-11-20T02:55:33;9.07;;;6.37;;
21798;SDS011;24973;47.178;15.316;2022-11-20T02:58:24;11.00;;;6.87;;
21798;SDS011;24973;47.178;15.316;2022-11-20T03:01:13;8.97;;;6.37;;
21798;SDS011;24973;47.178;15.316;2022-11-20T03:04:02;11.27;;;8.20;;
21798;SDS011;24973;47.178;15.316;2022-11-20T03:06:51;10.37;;;7.33;;
21798;SDS011;24973;47.178;15.316;2022-11-20T03:09:40;12.33;;;7.13;;
21798;SDS011;24973;47.178;15.316;2022-11-20T03:12:29;9.47;;;6.73;;
21798;SDS011;24973;47.178;15.316;2022-11-20T03:15:19;13.10;;;7.03;;
21798;SDS011;24973;47.178;15.316;2022-11-20T03:18:07;15.93;;;7.70;;
21798;SDS011;24973;47.178;15.316;2022-11-20T03:20:56;8.93;;;6.07;;
21798;SDS011;24973;47.178;15.316;2022-11-20T03:23:46;9.13;;;6.83;;
21798;SDS011;24973;47.178;15.316;2022-11-20T03:26:35;8.30;;;5.63;;
21798;SDS011;24973;47.178;15.316;2022-11-20T03:29:24;10.60;;;7.17;;
21798;SDS011;24973;47.178;15.316;2022-11-20T03:32:14;12.50;;;6.97;;
21798;SDS011;24973;47.178;15.316;2022-11-20T03:35:03;9.47;;;6.37;;
21798;SDS011;24973;47.178;15.316;2022-11-20T03:37:53;8.63;;;6.23;;
21798;SDS011;24973;47.178;15.316;2022-11-20T03:40:42;10.47;;;7.17;;
21798;SDS011;24973;47.178;15.316;2022-11-20T03:43:30;7.33;;;5.77;;
21798;SDS011;24973;47.178;15.316;2022-11-20T03:46:20;7.90;;;6.07;;
21798;SDS011;24973;47.178;15.316;2022-11-20T03:49:11;8.53;;;6.00;;
21798;SDS011;24973;47.178;15.316;2022-11-20T03:51:59;8.77;;;6.33;;
21798;SDS011;24973;47.178;15.316;2022-11-20T03:54:48;11.00;;;6.20;;
21798;SDS011;24973;47.178;15.316;2022-11-20T03:57:36;10.17;;;6.53;;
21798;SDS011;24973;47.178;15.316;2022-11-20T04:00:25;11.07;;;7.40;;
21798;SDS011;24973;47.178;15.316;2022-11-20T04:03:14;9.03;;;6.27;;
21798;SDS011;24973;47.178;15.316;2022-11-20T04:06:05;9.07;;;6.67;;
21798;SDS011;24973;47.178;15.316;2022-11-20T04:08:56;10.80;;;6.23;;
21798;SDS011;24973;47.178;15.316;2022-11-20T04:11:46;8.57;;;5.70;;
21798;SDS011;24973;47.178;15.316;2022-11-20T04:14:34;7.50;;;5.93;;
21798;SDS011;24973;47.178;15.316;2022-11-20T04:17:23;10.80;;;5.70;;
21798;SDS011;24973;47.178;15.316;2022-11-20T04:20:12;7.73;;;5.93;;
21798;SDS011;24973;47.178;15.316;2022-11-20T04:23:02;8.90;;;5.10;;
21798;SDS011;24973;47.178;15.316;2022-11-20T04:25:51;8.00;;;5.77;;
21798;SDS011;24973;47.178;15.316;2022-11-20T04:28:40;6.77;;;5.37;;
21798;SDS011;24973;47.178;15.316;2022-11-20T04:31:29;6.50;;;5.20;;
21798;SDS011;24973;47.178;15.316;2022-11-20T04:34:20;10.73;;;5.57;;
21798;SDS011;24973;47.178;15.316;2022-11-20T04:37:09;6.53;;;5.87;;
21798;SDS011;24973;47.178;15.316;2022-11-20T04:39:59;9.67;;;5.20;;
21798;SDS011;24973;47.178;15.316;2022-11-20T04:42:47;7.77;;;5.37;;
21798;SDS011;24973;47.178;15.316;2022-11-20T04:45:36;6.47;;;4.47;;
21798;SDS011;24973;47.178;15.316;2022-11-20T04:48:25;6.07;;;5.17;;
21798;SDS011;24973;47.178;15.316;2022-11-20T04:51:15;6.93;;;4.77;;
21798;SDS011;24973;47.178;15.316;2022-11-20T04:54:04;7.20;;;5.27;;
21798;SDS011;24973;47.178;15.316;2022-11-20T04:56:54;6.80;;;5.03;;
21798;SDS011;24973;47.178;15.316;2022-11-20T04:59:43;8.73;;;5.63;;
21798;SDS011;24973;47.178;15.316;2022-11-20T05:02:32;7.57;;;5.87;;
21798;SDS011;24973;47.178;15.316;2022-11-20T05:05:20;10.20;;;5.90;;
21798;SDS011;24973;47.178;15.316;2022-11-20T05:08:09;6.13;;;5.23;;
21798;SDS011;24973;47.178;15.316;2022-11-20T05:11:01;6.47;;;4.77;;
21798;SDS011;24973;47.178;15.316;2022-11-20T05:13:53;6.53;;;5.53;;
21798;SDS011;24973;47.178;15.316;2022-11-20T05:16:42;5.00;;;4.33;;
21798;SDS011;24973;47.178;15.316;2022-11-20T05:19:31;7.00;;;5.57;;
21798;SDS011;24973;47.178;15.316;2022-11-20T05:22:20;5.37;;;4.83;;
21798;SDS011;24973;47.178;15.316;2022-11-20T05:25:09;7.83;;;5.33;;
21798;SDS011;24973;47.178;15.316;2022-11-20T05:27:58;4.93;;;4.47;;
21798;SDS011;24973;47.178;15.316;2022-11-20T05:30:48;8.60;;;5.27;;
21798;SDS011;24973;47.178;15.316;2022-11-20T05:33:39;6.77;;;4.80;;
21798;SDS011;24973;47.178;15.316;2022-11-20T05:36:29;4.87;;;4.47;;
21798;SDS011;24973;47.178;15.316;2022-11-20T05:39:18;5.87;;;4.67;;
21798;SDS011;24973;47.178;15.316;2022-11-20T05:42:06;7.00;;;5.30;;
21798;SDS011;24973;47.178;15.316;2022-11-20T05:45:13;5.30;;;4.13;;
21798;SDS011;24973;47.178;15.316;2022-11-20T05:48:03;6.87;;;4.20;;
21798;SDS011;24973;47.178;15.316;2022-11-20T05:50:52;5.67;;;3.83;;
21798;SDS011;24973;47.178;15.316;2022-11-20T05:53:41;5.70;;;3.27;;
21798;SDS011;24973;47.178;15.316;2022-11-20T05:56:33;6.77;;;4.80;;
21798;SDS011;24973;47.178;15.316;2022-11-20T05:59:22;4.20;;;3.73;;
21798;SDS011;24973;47.178;15.316;2022-11-20T06:02:11;6.27;;;4.67;;
21798;SDS011;24973;47.178;15.316;2022-11-20T06:05:01;4.93;;;4.07;;
21798;SDS011;24973;47.178;15.316;2022-11-20T06:07:51;3.87;;;3.47;;
21798;SDS011;24973;47.178;15.316;2022-11-20T06:10:39;4.30;;;3.80;;
21798;SDS011;24973;47.178;15.316;2022-11-20T06:13:28;4.13;;;3.63;;
21798;SDS011;24973;47.178;15.316;2022-11-20T06:16:18;4.83;;;3.80;;
21798;SDS011;24973;47.178;15.316;2022-11-20T06:19:08;5.77;;;3.77;;
21798;SDS011;24973;47.178;15.316;2022-11-20T06:21:58;14.30;;;8.90;;
21798;SDS011;24973;47.178;15.316;2022-11-20T06:24:47;11.53;;;7.23;;
21798;SDS011;24973;47.178;15.316;2022-11-20T06:27:35;10.53;;;7.47;;
21798;SDS011;24973;47.178;15.316;2022-11-20T06:30:24;11.60;;;7.77;;
21798;SDS011;24973;47.178;15.316;2022-11-20T06:33:13;13.17;;;9.00;;
21798;SDS011;24973;47.178;15.316;2022-11-20T06:36:02;8.03;;;6.07;;
21798;SDS011;24973;47.178;15.316;2022-11-20T06:38:57;5.20;;;4.40;;
21798;SDS011;24973;47.178;15.316;2022-11-20T06:41:45;4.70;;;3.63;;
21798;SDS011;24973;47.178;15.316;2022-11-20T06:44:34;3.93;;;3.53;;
21798;SDS011;24973;47.178;15.316;2022-11-20T06:47:24;4.50;;;3.97;;
21798;SDS011;24973;47.178;15.316;2022-11-20T06:50:13;4.37;;;3.97;;
21798;SDS011;24973;47.178;15.316;2022-11-20T06:53:02;3.33;;;3.03;;
21798;SDS011;24973;47.178;15.316;2022-11-20T06:55:55;5.73;;;3.87;;
21798;SDS011;24973;47.178;15.316;2022-11-20T06:58:45;4.37;;;3.97;;
21798;SDS011;24973;47.178;15.316;2022-11-20T07:01:34;4.30;;;3.10;;
21798;SDS011;24973;47.178;15.316;2022-11-20T07:04:22;7.07;;;3.37;;
21798;SDS011;24973;47.178;15.316;2022-11-20T07:07:11;4.70;;;3.97;;
21798;SDS011;24973;47.178;15.316;2022-11-20T07:10:00;4.20;;;3.47;;
21798;SDS011;24973;47.178;15.316;2022-11-20T07:12:50;6.27;;;4.20;;
21798;SDS011;24973;47.178;15.316;2022-11-20T07:15:40;3.77;;;3.07;;
21798;SDS011;24973;47.178;15.316;2022-11-20T07:18:28;3.17;;;2.80;;
21798;SDS011;24973;47.178;15.316;2022-11-20T07:21:17;5.07;;;3.27;;
21798;SDS011;24973;47.178;15.316;2022-11-20T07:24:06;4.13;;;3.27;;
21798;SDS011;24973;47.178;15.316;2022-11-20T07:26:55;4.30;;;3.30;;
21798;SDS011;24973;47.178;15.316;2022-11-20T07:29:45;3.13;;;2.83;;
21798;SDS011;24973;47.178;15.316;2022-11-20T07:32:33;4.80;;;3.50;;
21798;SDS011;24973;47.178;15.316;2022-11-20T07:35:22;4.13;;;3.53;;
21798;SDS011;24973;47.178;15.316;2022-11-20T07:38:11;4.63;;;3.60;;
21798;SDS011;24973;47.178;15.316;2022-11-20T07:41:00;4.83;;;3.97;;
21798;SDS011;24973;47.178;15.316;2022-11-20T07:43:49;5.80;;;4.57;;
21798;SDS011;24973;47.178;15.316;2022-11-20T07:46:39;4.90;;;3.90;;
21798;SDS011;24973;47.178;15.316;2022-11-20T07:49:27;5.83;;;5.23;;
21798;SDS011;24973;47.178;15.316;2022-11-20T07:52:16;3.40;;;2.87;;
21798;SDS011;24973;47.178;15.316;2022-11-20T07:55:05;8.00;;;6.77;;
21798;SDS011;24973;47.178;15.316;2022-11-20T07:57:56;7.03;;;4.20;;
21798;SDS011;24973;47.178;15.316;2022-11-20T08:00:45;10.13;;;7.73;;
21798;SDS011;24973;47.178;15.316;2022-11-20T08:03:35;4.13;;;3.53;;
21798;SDS011;24973;47.178;15.316;2022-11-20T08:06:25;6.90;;;4.70;;
21798;SDS011;24973;47.178;15.316;2022-11-20T08:09:13;4.97;;;4.40;;
21798;SDS011;24973;47.178;15.316;2022-11-20T08:12:02;5.13;;;4.27;;
21798;SDS011;24973;47.178;15.316;2022-11-20T08:15:09;4.30;;;3.90;;
21798;SDS011;24973;47.178;15.316;2022-11-20T08:17:59;5.07;;;4.50;;
21798;SDS011;24973;47.178;15.316;2022-11-20T08:21:10;4.60;;;3.77;;
21798;SDS011;24973;47.178;15.316;2022-11-20T08:23:59;4.67;;;4.27;;
21798;SDS011;24973;47.178;15.316;2022-11-20T08:26:47;9.87;;;8.87;;
21798;SDS011;24973;47.178;15.316;2022-11-20T08:29:36;8.30;;;5.23;;
21798;SDS011;24973;47.178;15.316;2022-11-20T08:32:25;5.17;;;4.33;;
21798;SDS011;24973;47.178;15.316;2022-11-20T08:35:13;4.17;;;3.73;;
21798;SDS011;24973;47.178;15.316;2022-11-20T08:38:04;7.05;;;5.40;;
21798;SDS011;24973;47.178;15.316;2022-11-20T08:40:55;6.68;;;5.53;;
21798;SDS011;24973;47.178;15.316;2022-11-20T08:44:03;7.78;;;7.07;;
21798;SDS011;24973;47.178;15.316;2022-11-20T08:46:54;6.73;;;5.40;;
21798;SDS011;24973;47.178;15.316;2022-11-20T08:49:43;5.03;;;4.53;;
21798;SDS011;24973;47.178;15.316;2022-11-20T08:52:32;4.73;;;4.23;;
21798;SDS011;24973;47.178;15.316;2022-11-20T08:55:25;4.77;;;4.30;;
21798;SDS011;24973;47.178;15.316;2022-11-20T08:58:14;5.70;;;4.27;;
21798;SDS011;24973;47.178;15.316;2022-11-20T09:01:03;6.20;;;5.37;;
21798;SDS011;24973;47.178;15.316;2022-11-20T09:03:52;6.53;;;4.60;;
21798;SDS011;24973;47.178;15.316;2022-11-20T09:06:42;6.20;;;5.27;;
21798;SDS011;24973;47.178;15.316;2022-11-20T09:09:31;7.10;;;6.40;;
21798;SDS011;24973;47.178;15.316;2022-11-20T09:12:21;8.17;;;6.07;;
21798;SDS011;24973;47.178;15.316;2022-11-20T09:15:10;7.10;;;6.13;;
21798;SDS011;24973;47.178;15.316;2022-11-20T09:17:59;10.10;;;6.73;;
21798;SDS011;24973;47.178;15.316;2022-11-20T09:20:50;7.60;;;5.87;;
21798;SDS011;24973;47.178;15.316;2022-11-20T09:23:40;9.47;;;6.37;;
21798;SDS011;24973;47.178;15.316;2022-11-20T09:26:28;8.13;;;5.97;;
21798;SDS011;24973;47.178;15.316;2022-11-20T09:29:18;9.63;;;6.27;;
21798;SDS011;24973;47.178;15.316;2022-11-20T09:32:07;10.33;;;7.47;;
21798;SDS011;24973;47.178;15.316;2022-11-20T09:34:56;10.27;;;7.50;;
21798;SDS011;24973;47.178;15.316;2022-11-20T09:37:49;8.17;;;6.77;;
21798;SDS011;24973;47.178;15.316;2022-11-20T09:40:39;7.10;;;6.40;;
21798;SDS011;24973;47.178;15.316;2022-11-20T09:43:38;8.80;;;6.93;;
21798;SDS011;24973;47.178;15.316;2022-11-20T09:46:40;11.47;;;7.60;;
21798;SDS011;24973;47.178;15.316;2022-11-20T09:49:42;7.73;;;6.20;;
21798;SDS011;24973;47.178;15.316;2022-11-20T09:52:49;10.63;;;7.63;;
21798;SDS011;24973;47.178;15.316;2022-11-20T09:55:52;7.13;;;6.00;;
21798;SDS011;24973;47.178;15.316;2022-11-20T09:58:43;8.13;;;6.23;;
21798;SDS011;24973;47.178;15.316;2022-11-20T10:01:36;8.47;;;7.33;;
21798;SDS011;24973;47.178;15.316;2022-11-20T10:04:30;9.87;;;6.63;;
21798;SDS011;24973;47.178;15.316;2022-11-20T10:07:22;7.27;;;6.57;;
21798;SDS011;24973;47.178;15.316;2022-11-20T10:10:19;8.83;;;6.57;;
21798;SDS011;24973;47.178;15.316;2022-11-20T10:13:32;10.03;;;7.00;;
21798;SDS011;24973;47.178;15.316;2022-11-20T10:16:32;10.87;;;6.87;;
21798;SDS011;24973;47.178;15.316;2022-11-20T10:19:32;8.53;;;5.87;;
21798;SDS011;24973;47.178;15.316;2022-11-20T10:22:37;5.70;;;4.70;;
21798;SDS011;24973;47.178;15.316;2022-11-20T10:25:42;7.33;;;4.37;;
21798;SDS011;24973;47.178;15.316;2022-11-20T10:28:43;5.37;;;4.30;;
21798;SDS011;24973;47.178;15.316;2022-11-20T10:31:47;6.87;;;5.93;;
21798;SDS011;24973;47.178;15.316;2022-11-20T10:34:43;4.83;;;4.37;;
21798;SDS011;24973;47.178;15.316;2022-11-20T10:37:40;7.93;;;5.50;;
21798;SDS011;24973;47.178;15.316;2022-11-20T10:40:33;7.53;;;4.70;;
21798;SDS011;24973;47.178;15.316;2022-11-20T10:43:28;6.67;;;5.37;;
21798;SDS011;24973;47.178;15.316;2022-11-20T10:46:21;7.47;;;5.50;;
21798;SDS011;24973;47.178;15.316;2022-11-20T10:49:14;9.57;;;6.03;;
21798;SDS011;24973;47.178;15.316;2022-11-20T10:52:07;7.53;;;5.90;;
21798;SDS011;24973;47.178;15.316;2022-11-20T10:55:05;7.10;;;6.17;;
21798;SDS011;24973;47.178;15.316;2022-11-20T10:58:01;8.07;;;6.53;;
21798;SDS011;24973;47.178;15.316;2022-11-20T11:01:02;6.00;;;5.37;;
21798;SDS011;24973;47.178;15.316;2022-11-20T11:03:53;6.23;;;5.57;;
21798;SDS011;24973;47.178;15.316;2022-11-20T11:06:46;10.07;;;6.25;;
21798;SDS011;24973;47.178;15.316;2022-11-20T11:09:37;9.02;;;7.40;;
21798;SDS011;24973;47.178;15.316;2022-11-20T11:12:31;7.85;;;6.18;;
21798;SDS011;24973;47.178;15.316;2022-11-20T11:15:27;8.32;;;6.63;;
21798;SDS011;24973;47.178;15.316;2022-11-20T11:18:24;10.00;;;5.90;;
21798;SDS011;24973;47.178;15.316;2022-11-20T11:21:21;5.07;;;4.57;;
21798;SDS011;24973;47.178;15.316;2022-11-20T11:24:21;4.47;;;4.07;;
21798;SDS011;24973;47.178;15.316;2022-11-20T11:27:26;4.50;;;3.73;;
21798;SDS011;24973;47.178;15.316;2022-11-20T11:30:16;3.95;;;3.50;;
21798;SDS011;24973;47.178;15.316;2022-11-20T11:33:09;4.20;;;3.80;;
21798;SDS011;24973;47.178;15.316;2022-11-20T11:35:59;4.30;;;3.90;;
21798;SDS011;24973;47.178;15.316;2022-11-20T11:38:51;5.18;;;4.25;;
21798;SDS011;24973;47.178;15.316;2022-11-20T11:41:43;3.50;;;3.20;;
21798;SDS011;24973;47.178;15.316;2022-11-20T11:44:33;3.22;;;2.92;;
21798;SDS011;24973;47.178;15.316;2022-11-20T11:47:43;4.10;;;3.70;;
21798;SDS011;24973;47.178;15.316;2022-11-20T11:50:34;3.33;;;2.88;;
21798;SDS011;24973;47.178;15.316;2022-11-20T11:53:23;4.13;;;3.70;;
21798;SDS011;24973;47.178;15.316;2022-11-20T11:56:15;4.60;;;4.20;;
21798;SDS011;24973;47.178;15.316;2022-11-20T11:59:06;5.50;;;4.80;;
21798;SDS011;24973;47.178;15.316;2022-11-20T12:02:05;6.28;;;5.68;;
21798;SDS011;24973;47.178;15.316;2022-11-20T12:05:13;4.82;;;4.13;;
21798;SDS011;24973;47.178;15.316;2022-11-20T12:08:10;5.75;;;5.10;;
21798;SDS011;24973;47.178;15.316;2022-11-20T12:11:06;5.57;;;5.07;;
21798;SDS011;24973;47.178;15.316;2022-11-20T12:14:02;4.50;;;4.10;;
21798;SDS011;24973;47.178;15.316;2022-11-20T12:17:02;5.22;;;4.28;;
21798;SDS011;24973;47.178;15.316;2022-11-20T12:19:51;6.00;;;4.88;;
21798;SDS011;24973;47.178;15.316;2022-11-20T12:22:41;5.55;;;4.93;;
21798;SDS011;24973;47.178;15.316;2022-11-20T12:25:38;5.18;;;4.45;;
21798;SDS011;24973;47.178;15.316;2022-11-20T12:28:35;5.93;;;4.95;;
21798;SDS011;24973;47.178;15.316;2022-11-20T12:31:47;5.30;;;4.77;;
21798;SDS011;24973;47.178;15.316;2022-11-20T12:34:52;4.93;;;4.40;;
21798;SDS011;24973;47.178;15.316;2022-11-20T12:37:59;4.93;;;4.43;;
21798;SDS011;24973;47.178;15.316;2022-11-20T12:41:10;5.85;;;4.25;;
21798;SDS011;24973;47.178;15.316;2022-11-20T12:44:25;5.60;;;4.30;;
21798;SDS011;24973;47.178;15.316;2022-11-20T12:47:55;4.80;;;4.32;;
21798;SDS011;24973;47.178;15.316;2022-11-20T12:51:09;5.20;;;4.68;;
21798;SDS011;24973;47.178;15.316;2022-11-20T12:54:29;5.03;;;4.53;;
21798;SDS011;24973;47.178;15.316;2022-11-20T12:57:44;5.30;;;4.70;;
21798;SDS011;24973;47.178;15.316;2022-11-20T13:00:38;5.97;;;5.38;;
21798;SDS011;24973;47.178;15.316;2022-11-20T13:03:40;5.32;;;4.68;;
21798;SDS011;24973;47.178;15.316;2022-11-20T13:06:35;5.22;;;4.38;;
21798;SDS011;24973;47.178;15.316;2022-11-20T13:09:24;4.13;;;3.72;;
21798;SDS011;24973;47.178;15.316;2022-11-20T13:12:15;4.13;;;3.72;;
21798;SDS011;24973;47.178;15.316;2022-11-20T13:15:15;3.17;;;2.92;;
21798;SDS011;24973;47.178;15.316;2022-11-20T13:18:14;2.30;;;2.10;;
21798;SDS011;24973;47.178;15.316;2022-11-20T13:21:14;2.53;;;2.28;;
21798;SDS011;24973;47.178;15.316;2022-11-20T13:24:05;2.60;;;2.30;;
21798;SDS011;24973;47.178;15.316;2022-11-20T13:27:02;3.08;;;2.83;;
21798;SDS011;24973;47.178;15.316;2022-11-20T13:30:00;3.42;;;3.13;;
21798;SDS011;24973;47.178;15.316;2022-11-20T13:33:03;4.00;;;2.75;;
21798;SDS011;24973;47.178;15.316;2022-11-20T13:35:57;3.00;;;2.70;;
21798;SDS011;24973;47.178;15.316;2022-11-20T13:38:50;2.60;;;2.38;;
21798;SDS011;24973;47.178;15.316;2022-11-20T13:41:40;3.05;;;2.35;;
21798;SDS011;24973;47.178;15.316;2022-11-20T13:44:30;3.22;;;2.35;;
21798;SDS011;24973;47.178;15.316;2022-11-20T13:47:26;6.05;;;3.83;;
21798;SDS011;24973;47.178;15.316;2022-11-20T13:50:16;7.43;;;4.20;;
21798;SDS011;24973;47.178;15.316;2022-11-20T13:53:06;9.57;;;4.47;;
21798;SDS011;24973;47.178;15.316;2022-11-20T13:56:14;3.17;;;2.88;;
21798;SDS011;24973;47.178;15.316;2022-11-20T13:59:14;5.57;;;3.20;;
21798;SDS011;24973;47.178;15.316;2022-11-20T14:02:25;11.48;;;5.60;;
21798;SDS011;24973;47.178;15.316;2022-11-20T14:05:18;23.75;;;8.95;;
21798;SDS011;24973;47.178;15.316;2022-11-20T14:08:12;15.68;;;5.53;;
21798;SDS011;24973;47.178;15.316;2022-11-20T14:11:16;13.48;;;5.57;;
21798;SDS011;24973;47.178;15.316;2022-11-20T14:14:15;14.17;;;6.87;;
21798;SDS011;24973;47.178;15.316;2022-11-20T14:17:06;17.92;;;6.78;;
21798;SDS011;24973;47.178;15.316;2022-11-20T14:20:04;9.95;;;5.07;;
21798;SDS011;24973;47.178;15.316;2022-11-20T14:22:59;4.67;;;2.80;;
21798;SDS011;24973;47.178;15.316;2022-11-20T14:25:47;18.45;;;7.70;;
21798;SDS011;24973;47.178;15.316;2022-11-20T14:28:38;18.73;;;8.50;;
21798;SDS011;24973;47.178;15.316;2022-11-20T14:31:29;4.38;;;2.72;;
21798;SDS011;24973;47.178;15.316;2022-11-20T14:34:25;2.50;;;2.30;;
21798;SDS011;24973;47.178;15.316;2022-11-20T14:37:19;6.15;;;4.78;;
21798;SDS011;24973;47.178;15.316;2022-11-20T14:40:23;5.40;;;4.47;;
21798;SDS011;24973;47.178;15.316;2022-11-20T14:43:18;7.38;;;4.32;;
21798;SDS011;24973;47.178;15.316;2022-11-20T14:46:12;5.32;;;3.90;;
21798;SDS011;24973;47.178;15.316;2022-11-20T14:49:01;6.15;;;4.15;;
21798;SDS011;24973;47.178;15.316;2022-11-20T14:51:58;11.30;;;6.00;;
21798;SDS011;24973;47.178;15.316;2022-11-20T14:54:48;9.85;;;7.03;;
21798;SDS011;24973;47.178;15.316;2022-11-20T14:57:38;10.33;;;4.83;;
21798;SDS011;24973;47.178;15.316;2022-11-20T15:00:27;10.75;;;5.75;;
21798;SDS011;24973;47.178;15.316;2022-11-20T15:03:19;12.18;;;7.57;;
21798;SDS011;24973;47.178;15.316;2022-11-20T15:06:10;7.13;;;5.20;;
21798;SDS011;24973;47.178;15.316;2022-11-20T15:08:59;9.10;;;6.30;;
21798;SDS011;24973;47.178;15.316;2022-11-20T15:11:52;9.00;;;4.88;;
21798;SDS011;24973;47.178;15.316;2022-11-20T15:14:43;6.28;;;4.38;;
21798;SDS011;24973;47.178;15.316;2022-11-20T15:17:32;7.97;;;5.13;;
21798;SDS011;24973;47.178;15.316;2022-11-20T15:20:27;7.95;;;5.18;;
21798;SDS011;24973;47.178;15.316;2022-11-20T15:23:19;6.40;;;5.00;;
21798;SDS011;24973;47.178;15.316;2022-11-20T15:26:08;5.22;;;3.70;;
21798;SDS011;24973;47.178;15.316;2022-11-20T15:29:02;5.93;;;4.03;;
21798;SDS011;24973;47.178;15.316;2022-11-20T15:31:51;5.53;;;3.65;;
21798;SDS011;24973;47.178;15.316;2022-11-20T15:34:41;10.05;;;5.15;;
21798;SDS011;24973;47.178;15.316;2022-11-20T15:37:31;6.07;;;4.70;;
21798;SDS011;24973;47.178;15.316;2022-11-20T15:40:20;12.97;;;5.40;;
21798;SDS011;24973;47.178;15.316;2022-11-20T15:43:09;15.77;;;8.07;;
21798;SDS011;24973;47.178;15.316;2022-11-20T15:45:59;16.27;;;8.75;;
21798;SDS011;24973;47.178;15.316;2022-11-20T15:48:51;5.30;;;4.33;;
21798;SDS011;24973;47.178;15.316;2022-11-20T15:51:43;3.03;;;2.63;;
21798;SDS011;24973;47.178;15.316;2022-11-20T15:54:34;5.37;;;2.63;;
21798;SDS011;24973;47.178;15.316;2022-11-20T15:57:23;4.63;;;2.90;;
21798;SDS011;24973;47.178;15.316;2022-11-20T16:00:14;3.50;;;2.07;;
21798;SDS011;24973;47.178;15.316;2022-11-20T16:03:08;2.60;;;1.93;;
21798;SDS011;24973;47.178;15.316;2022-11-20T16:05:58;3.47;;;2.75;;
21798;SDS011;24973;47.178;15.316;2022-11-20T16:08:47;4.23;;;2.93;;
21798;SDS011;24973;47.178;15.316;2022-11-20T16:11:37;3.10;;;2.60;;
21798;SDS011;24973;47.178;15.316;2022-11-20T16:14:26;4.37;;;3.50;;
21798;SDS011;24973;47.178;15.316;2022-11-20T16:17:32;3.40;;;3.10;;
21798;SDS011;24973;47.178;15.316;2022-11-20T16:20:30;3.50;;;2.97;;
21798;SDS011;24973;47.178;15.316;2022-11-20T16:23:18;6.93;;;4.13;;
21798;SDS011;24973;47.178;15.316;2022-11-20T16:26:09;4.20;;;3.57;;
21798;SDS011;24973;47.178;15.316;2022-11-20T16:29:00;5.30;;;3.33;;
21798;SDS011;24973;47.178;15.316;2022-11-20T16:31:51;4.13;;;3.63;;
21798;SDS011;24973;47.178;15.316;2022-11-20T16:34:40;8.30;;;3.07;;
21798;SDS011;24973;47.178;15.316;2022-11-20T16:37:29;4.47;;;2.70;;
21798;SDS011;24973;47.178;15.316;2022-11-20T16:40:17;3.40;;;2.77;;
21798;SDS011;24973;47.178;15.316;2022-11-20T16:43:07;5.23;;;3.80;;
21798;SDS011;24973;47.178;15.316;2022-11-20T16:46:02;4.43;;;3.07;;
21798;SDS011;24973;47.178;15.316;2022-11-20T16:48:52;9.03;;;7.63;;
21798;SDS011;24973;47.178;15.316;2022-11-20T16:51:42;7.17;;;6.47;;
21798;SDS011;24973;47.178;15.316;2022-11-20T16:54:31;6.70;;;5.13;;
21798;SDS011;24973;47.178;15.316;2022-11-20T16:57:19;6.87;;;5.03;;
21798;SDS011;24973;47.178;15.316;2022-11-20T17:00:08;6.40;;;4.43;;